Terminal Aerodrome Forecast
Issued by NWS

Current Version | Previous Version | Graphics & Text | Print | Product List | Glossary Off
Versions: 1 2 3 4 5 6 7 8 9 10 11 12 13 14 15 16 17 18 19 20 21 22 23 24 25 26 27 28 29 30 31 32 33 34 35 36 37 38 39

000
FTUS41 KRNK 011144
TAFLWB
TAF
KLWB 011144Z 0112/0212 VRB06KT 5SM -SHRA BR SCT005 OVC012
      TEMPO 0113/0117 1SM +SHRA BR BKN009 OVC015
     FM011800 22007KT P6SM VCSH BKN025 BKN045 OVC250 PROB30
      0122/0202 1SM +TSRA BR BKN018CB
     FM020200 25007KT P6SM VCSH SCT020 BKN250
     FM020600 24005KT 4SM BR SCT005 BKN250
     FM020900 23003KT 3SM BR BKN005
      TEMPO 0209/0212 1/2SM FG VV001=

USA.gov is the U.S. government's official web portal to all federal, state and local government web resources and services.